KCRW Airport Diagram

We have created a template for each of the higher traffic airports in the vZID airspace. They include KCMH, KCRW, KCVG, KDAY, KIND, KLEX and KSDF. You wil find usefull information including the airport diagram, weather, and specific airport procedures.

KCRW Weather

[Source: ADDS]
METAR
KCRW 181354Z 00000KT 7SM FEW002 M01/M01 A3024 RMK AO2 SLP247 T10111011 =
KCRW 181132Z 1812/1912 00000KT P6SM FEW250 FM181600 00000KT P6SM FEW040 FM190200 00000KT P6SM SCT250
TAF
KCRW 181132Z 1812/1912 00000KT P6SM FEW250 FM181600 00000KT P6SM FEW040 FM190200 00000KT P6SM SCT250 =

KCRW Operations

Calm wind runway up to 10kts: Rw 23

 

JSN Epic template designed by JoomlaShine.com